createdAt,value
2022-09-12T00:01:06.640Z,6.15
2022-09-12T00:03:34.923Z,5.90
2022-09-12T00:06:03.133Z,6.40
2022-09-12T00:08:31.140Z,6.18
2022-09-12T00:10:59.401Z,5.80
2022-09-12T00:13:27.417Z,6.32
2022-09-12T00:15:55.365Z,6.53
2022-09-12T00:18:24.778Z,6.43
2022-09-12T00:20:52.795Z,7.30
2022-09-12T00:23:20.884Z,7.20
2022-09-12T00:25:50.133Z,6.05
2022-09-12T00:28:19.300Z,6.55
2022-09-12T00:30:49.229Z,5.93
2022-09-12T00:33:18.935Z,6.35
2022-09-12T00:35:50.387Z,6.40
2022-09-12T00:38:18.880Z,6.85
2022-09-12T00:40:47.200Z,6.00
2022-09-12T00:43:34.457Z,6.90
2022-09-12T00:46:06.570Z,5.95
2022-09-12T00:48:40.661Z,5.50
2022-09-12T00:51:10.667Z,5.72
2022-09-12T00:53:41.846Z,6.85
2022-09-12T00:56:10.542Z,6.15
2022-09-12T00:58:42.934Z,6.95
2022-09-12T01:01:11.027Z,6.53
2022-09-12T01:03:39.290Z,6.68
2022-09-12T01:06:14.076Z,7.05
2022-09-12T01:08:44.115Z,5.80
2022-09-12T01:11:14.413Z,6.30
2022-09-12T01:13:43.208Z,5.57
2022-09-12T01:16:11.312Z,6.82
2022-09-12T01:18:52.654Z,5.82
2022-09-12T01:21:35.424Z,6.05
2022-09-12T01:24:30.195Z,6.47
2022-09-12T01:27:37.689Z,6.32
2022-09-12T01:30:29.441Z,5.90
2022-09-12T01:33:34.116Z,5.70
2022-09-12T01:36:35.829Z,6.13
2022-09-12T01:39:06.725Z,7.13
2022-09-12T01:41:45.542Z,7.13
2022-09-12T01:44:22.775Z,6.03
2022-09-12T01:46:59.014Z,5.40
2022-09-12T01:49:30.573Z,6.28
2022-09-12T01:52:04.493Z,6.53
2022-09-12T01:54:38.209Z,7.75
2022-09-12T01:57:13.917Z,7.82
2022-09-12T01:59:48.348Z,7.30
2022-09-12T02:02:24.031Z,7.43
2022-09-12T02:04:58.464Z,6.82
2022-09-12T02:07:32.628Z,6.40
2022-09-12T02:10:07.242Z,7.05
2022-09-12T02:12:40.426Z,5.70
2022-09-12T02:15:10.740Z,6.35
2022-09-12T02:17:44.417Z,6.95
2022-09-12T02:20:43.984Z,7.32
2022-09-12T02:23:14.996Z,6.00
2022-09-12T02:25:46.817Z,6.70
2022-09-12T02:28:19.771Z,6.85
2022-09-12T02:30:56.824Z,6.60
2022-09-12T02:33:32.091Z,6.03
2022-09-12T02:36:11.141Z,6.05
2022-09-12T02:38:44.422Z,6.40
2022-09-12T02:41:14.914Z,6.93
2022-09-12T02:43:43.096Z,6.38
2022-09-12T02:46:18.321Z,6.90
2022-09-12T02:48:47.875Z,8.15
2022-09-12T02:51:20.303Z,7.25
2022-09-12T02:53:51.387Z,6.85
2022-09-12T02:56:25.947Z,14.45
2022-09-12T02:58:55.407Z,6.13
2022-09-12T03:01:35.194Z,7.10
2022-09-12T03:04:29.799Z,7.32
2022-09-12T03:07:12.355Z,9.18
2022-09-12T03:09:47.026Z,7.22
2022-09-12T03:12:30.253Z,8.32
2022-09-12T03:15:23.748Z,8.38
2022-09-12T03:18:07.385Z,7.70
2022-09-12T03:20:46.079Z,8.60
2022-09-12T03:23:25.507Z,8.15
2022-09-12T03:25:58.066Z,9.00
2022-09-12T03:28:26.798Z,8.68
2022-09-12T03:30:56.500Z,8.77
2022-09-12T03:33:26.488Z,7.68
2022-09-12T03:35:56.956Z,6.68
2022-09-12T03:38:25.008Z,6.55
2022-09-12T03:40:54.982Z,7.63
2022-09-12T03:43:23.174Z,7.80
2022-09-12T03:45:52.333Z,8.13
2022-09-12T03:48:20.490Z,8.50
2022-09-12T03:50:48.613Z,8.50
2022-09-12T03:53:17.962Z,8.45
2022-09-12T03:55:46.015Z,7.85
2022-09-12T03:58:13.970Z,7.32
2022-09-12T04:00:43.054Z,8.15
2022-09-12T04:03:11.212Z,8.98
2022-09-12T04:05:39.430Z,9.98
2022-09-12T04:08:07.502Z,9.93
2022-09-12T04:10:36.992Z,9.52
2022-09-12T04:13:05.002Z,8.57
2022-09-12T04:15:34.336Z,9.15
2022-09-12T04:18:05.705Z,13.15
2022-09-12T04:20:34.281Z,7.07
2022-09-12T04:23:02.363Z,7.30
2022-09-12T04:25:31.372Z,7.95
2022-09-12T04:28:00.733Z,7.68
2022-09-12T04:30:28.919Z,8.43
2022-09-12T04:32:56.956Z,9.75
2022-09-12T04:35:25.008Z,9.43
2022-09-12T04:37:53.088Z,9.18
2022-09-12T04:40:21.310Z,8.52
2022-09-12T04:42:49.283Z,7.95
2022-09-12T04:45:19.234Z,8.40
2022-09-12T04:47:47.372Z,7.97
2022-09-12T04:50:15.621Z,8.30
2022-09-12T04:52:43.704Z,9.07
2022-09-12T04:55:11.878Z,9.57
2022-09-12T04:57:39.959Z,10.23
2022-09-12T05:00:13.625Z,9.95
2022-09-12T05:02:43.556Z,9.18
2022-09-12T05:05:12.450Z,7.63
2022-09-12T05:07:40.442Z,9.10
2022-09-12T05:10:10.068Z,8.38
2022-09-12T05:12:38.067Z,9.15
2022-09-12T05:15:07.518Z,9.52
2022-09-12T05:17:35.498Z,8.25
2022-09-12T05:20:05.458Z,11.48
2022-09-12T05:22:33.450Z,9.32
2022-09-12T05:25:01.567Z,7.18
2022-09-12T05:27:29.549Z,8.77
2022-09-12T05:29:57.692Z,7.38
2022-09-12T05:32:25.771Z,20.10
2022-09-12T05:34:53.769Z,17.58
2022-09-12T05:37:23.216Z,12.63
2022-09-12T05:39:51.298Z,9.50
2022-09-12T05:42:19.329Z,8.63
2022-09-12T05:44:47.459Z,8.10
2022-09-12T05:47:16.889Z,17.77
2022-09-12T05:49:47.979Z,9.40
2022-09-12T05:52:16.306Z,9.38
2022-09-12T05:54:46.631Z,8.45
2022-09-12T05:57:14.669Z,8.73
2022-09-12T05:59:43.337Z,8.30
2022-09-12T06:02:12.981Z,9.07
2022-09-12T06:04:41.924Z,7.97
2022-09-12T06:07:10.300Z,13.63
2022-09-12T06:09:38.406Z,11.10
2022-09-12T06:12:08.657Z,8.45
2022-09-12T06:14:36.999Z,7.28
2022-09-12T06:17:05.457Z,7.88
2022-09-12T06:19:33.675Z,8.38
2022-09-12T06:22:01.786Z,7.57
2022-09-12T06:24:29.810Z,6.85
2022-09-12T06:26:57.845Z,6.82
2022-09-12T06:29:27.305Z,6.82
2022-09-12T06:31:55.383Z,6.93
2022-09-12T06:34:23.436Z,6.68
2022-09-12T06:36:51.882Z,7.32
2022-09-12T06:39:21.829Z,7.15
2022-09-12T06:41:50.649Z,7.13
2022-09-12T06:44:21.389Z,7.43
2022-09-12T06:46:53.621Z,7.68
2022-09-12T06:49:21.693Z,7.00
2022-09-12T06:51:49.831Z,7.18
2022-09-12T06:54:18.166Z,7.65
2022-09-12T06:56:46.330Z,6.75
2022-09-12T06:59:14.445Z,6.93
2022-09-12T07:01:42.814Z,7.10
2022-09-12T07:04:12.681Z,7.30
2022-09-12T07:06:42.111Z,7.68
2022-09-12T07:09:12.996Z,7.05
2022-09-12T07:11:43.150Z,7.18
2022-09-12T07:14:13.980Z,7.38
2022-09-12T07:16:42.391Z,6.93
2022-09-12T07:19:12.224Z,6.82
2022-09-12T07:21:40.951Z,6.25
2022-09-12T07:24:10.785Z,6.45
2022-09-12T07:26:40.467Z,6.45
2022-09-12T07:29:35.502Z,6.85
2022-09-12T07:31:58.759Z,5.72
2022-09-12T07:34:28.164Z,5.88
2022-09-12T07:36:56.152Z,6.20
2022-09-12T07:39:24.134Z,5.43
2022-09-12T07:41:52.109Z,6.22
2022-09-12T07:44:21.965Z,5.88
2022-09-12T07:46:50.744Z,6.25
2022-09-12T07:49:18.861Z,5.80
2022-09-12T07:51:48.506Z,6.03
2022-09-12T07:54:16.756Z,5.55
2022-09-12T07:56:45.851Z,5.78
2022-09-12T07:59:18.917Z,5.65
2022-09-12T08:01:58.156Z,5.55
2022-09-12T08:09:21.132Z,5.95
2022-09-12T08:11:49.452Z,5.70
2022-09-12T08:14:18.297Z,5.85
2022-09-12T08:16:46.333Z,5.68
2022-09-12T08:19:14.788Z,4.95
2022-09-12T08:21:42.859Z,5.22
2022-09-12T08:24:13.579Z,5.00
2022-09-12T08:26:43.153Z,5.45
2022-09-12T08:29:11.183Z,5.82
2022-09-12T08:31:41.274Z,5.07
2022-09-12T08:34:09.989Z,5.53
2022-09-12T08:36:38.044Z,5.38
2022-09-12T08:39:08.014Z,5.72
2022-09-12T08:41:40.780Z,5.05
2022-09-12T08:44:32.864Z,5.00
2022-09-12T08:47:16.448Z,4.20
2022-09-12T08:49:52.536Z,4.32
2022-09-12T08:52:24.558Z,4.13
2022-09-12T08:54:53.300Z,4.05
2022-09-12T08:57:21.508Z,3.92
2022-09-12T08:59:52.201Z,4.57
2022-09-12T09:02:56.084Z,4.10
2022-09-12T09:05:29.585Z,4.40
2022-09-12T09:08:17.435Z,3.90
2022-09-12T09:10:53.007Z,4.32
2022-09-12T09:13:50.305Z,3.78
2022-09-12T09:16:27.068Z,3.90
2022-09-12T09:18:58.450Z,4.38
2022-09-12T09:21:31.842Z,3.97
2022-09-12T09:24:05.850Z,4.03
2022-09-12T09:26:42.946Z,3.65
2022-09-12T09:29:18.675Z,3.85
2022-09-12T09:31:53.433Z,3.95
2022-09-12T09:34:22.927Z,4.15
2022-09-12T09:36:53.455Z,3.80
2022-09-12T09:39:35.501Z,4.15
2022-09-12T09:42:13.889Z,3.72
2022-09-12T09:44:42.143Z,3.63
2022-09-12T09:47:13.232Z,3.60
2022-09-12T09:49:41.887Z,4.13
2022-09-12T09:52:13.305Z,3.83
2022-09-12T09:54:47.504Z,3.25
2022-09-12T09:57:41.888Z,3.53
2022-09-12T10:00:24.114Z,3.72
2022-09-12T10:03:28.730Z,3.60
2022-09-12T10:06:01.659Z,3.92
2022-09-12T10:08:31.583Z,4.38
2022-09-12T10:11:02.948Z,3.95
2022-09-12T10:13:37.814Z,3.70
2022-09-12T10:16:08.504Z,3.80
2022-09-12T10:18:42.867Z,3.65
2022-09-12T10:21:19.397Z,3.47
2022-09-12T10:23:51.987Z,3.13
2022-09-12T10:26:21.685Z,3.10
2022-09-12T10:28:53.685Z,3.08
2022-09-12T10:31:29.457Z,2.95
2022-09-12T10:34:00.958Z,3.50
2022-09-12T10:36:39.392Z,2.22
2022-09-12T10:39:08.168Z,3.15
2022-09-12T10:41:39.709Z,3.28
2022-09-12T10:44:09.934Z,3.05
2022-09-12T10:46:38.121Z,3.30
2022-09-12T10:49:24.948Z,3.58
2022-09-12T10:51:57.327Z,3.47
2022-09-12T10:54:27.920Z,2.70
2022-09-12T10:57:12.376Z,3.40
2022-09-12T11:00:02.515Z,3.03
2022-09-12T11:02:36.351Z,2.90
2022-09-12T11:05:12.900Z,3.38
2022-09-12T11:07:47.206Z,4.28
2022-09-12T11:10:36.335Z,3.50
2022-09-12T11:13:20.749Z,3.92
2022-09-12T11:16:02.520Z,3.53
2022-09-12T11:19:04.982Z,3.72
2022-09-12T11:21:47.919Z,2.95
2022-09-12T11:24:48.159Z,3.40
2022-09-12T11:27:34.365Z,2.95
2022-09-12T11:30:06.378Z,3.50
2022-09-12T11:32:53.434Z,3.55
2022-09-12T11:35:25.863Z,3.05
2022-09-12T11:38:15.279Z,3.50
2022-09-12T11:40:49.867Z,2.83
2022-09-12T11:43:30.092Z,2.20
2022-09-12T11:46:03.389Z,2.75
2022-09-12T11:48:41.198Z,3.10
2022-09-12T11:51:19.261Z,2.50
2022-09-12T11:53:57.792Z,3.25
2022-09-12T11:56:27.427Z,2.50
2022-09-12T11:59:04.061Z,2.50
2022-09-12T12:01:42.006Z,2.58
2022-09-12T12:04:16.690Z,2.40
2022-09-12T12:06:52.114Z,2.47
2022-09-12T12:09:20.438Z,2.50
2022-09-12T12:11:56.023Z,2.50
2022-09-12T12:14:27.906Z,2.47
2022-09-12T12:16:56.013Z,2.45
2022-09-12T12:19:34.692Z,2.10
2022-09-12T12:22:17.554Z,2.30
2022-09-12T12:25:08.197Z,2.33
2022-09-12T12:27:59.169Z,2.38
2022-09-12T12:31:02.122Z,2.20
2022-09-12T12:33:53.725Z,2.30
2022-09-12T12:36:38.127Z,2.38
2022-09-12T12:39:49.291Z,2.22
2022-09-12T12:43:04.740Z,2.05
2022-09-12T12:46:12.576Z,1.90
2022-09-12T12:49:04.824Z,2.13
2022-09-12T12:51:57.763Z,2.35
2022-09-12T12:54:34.849Z,1.92
2022-09-12T12:57:18.415Z,2.40
2022-09-12T12:59:50.013Z,2.50
2022-09-12T13:02:23.644Z,2.10
2022-09-12T13:04:53.793Z,2.05
2022-09-12T13:07:33.729Z,2.33
2022-09-12T13:10:03.316Z,2.17
2022-09-12T13:12:35.135Z,2.60
2022-09-12T13:15:05.641Z,2.33
2022-09-12T13:17:37.003Z,1.98
2022-09-12T13:20:30.098Z,2.00
2022-09-12T13:22:59.514Z,2.40
2022-09-12T13:25:30.316Z,2.22
2022-09-12T13:28:00.702Z,2.60
2022-09-12T13:30:30.262Z,2.17
2022-09-12T13:32:59.978Z,2.45
2022-09-12T13:35:41.159Z,2.30
2022-09-12T13:38:17.623Z,2.22
2022-09-12T13:41:02.290Z,2.40
2022-09-12T13:43:41.046Z,2.10
2022-09-12T13:46:10.059Z,2.00
2022-09-12T13:48:40.518Z,2.13
2022-09-12T13:51:24.187Z,2.15
2022-09-12T13:53:56.150Z,2.28
2022-09-12T13:56:24.212Z,2.22
2022-09-12T13:58:55.512Z,2.28
2022-09-12T14:01:24.858Z,1.92
2022-09-12T14:04:12.081Z,2.50
2022-09-12T14:06:50.565Z,2.10
2022-09-12T14:09:26.009Z,2.40
2022-09-12T14:11:54.371Z,2.22
2022-09-12T14:14:31.257Z,1.95
2022-09-12T14:17:00.303Z,1.73
2022-09-12T14:19:29.172Z,1.75
2022-09-12T14:22:01.035Z,2.03
2022-09-12T14:24:31.031Z,2.33
2022-09-12T14:27:00.119Z,1.95
2022-09-12T14:29:28.965Z,1.95
2022-09-12T14:32:05.098Z,2.00
2022-09-12T14:34:33.262Z,2.38
2022-09-12T14:37:07.942Z,1.85
2022-09-12T14:39:42.122Z,7.10
2022-09-12T14:42:17.415Z,1.70
2022-09-12T14:44:56.229Z,1.80
2022-09-12T14:47:27.566Z,1.90
2022-09-12T14:49:56.587Z,1.70
2022-09-12T14:52:29.556Z,2.00
2022-09-12T14:54:59.603Z,2.00
2022-09-12T14:57:40.123Z,1.70
2022-09-12T15:00:24.287Z,2.03
2022-09-12T15:02:54.208Z,1.83
2022-09-12T15:05:28.464Z,1.52
2022-09-12T15:08:02.115Z,2.00
2022-09-12T15:10:33.051Z,1.83
2022-09-12T15:13:22.372Z,1.77
2022-09-12T15:15:52.743Z,1.50
2022-09-12T15:18:21.747Z,1.40
2022-09-12T15:20:52.974Z,1.60
2022-09-12T15:23:38.194Z,2.00
2022-09-12T15:26:06.863Z,1.77
2022-09-12T15:28:35.127Z,1.50
2022-09-12T15:31:08.661Z,1.75
2022-09-12T15:33:36.777Z,1.73
2022-09-12T15:36:12.963Z,1.40
2022-09-12T15:38:42.398Z,1.45
2022-09-12T15:41:16.942Z,1.40
2022-09-12T15:43:45.493Z,1.38
2022-09-12T15:46:15.386Z,1.58
2022-09-12T15:48:43.496Z,1.75
2022-09-12T15:51:15.540Z,1.20
2022-09-12T15:53:46.564Z,1.35
2022-09-12T15:56:15.339Z,1.65
2022-09-12T15:58:57.569Z,1.38
2022-09-12T16:01:27.422Z,1.52
2022-09-12T16:03:55.821Z,1.30
2022-09-12T16:06:24.170Z,1.60
2022-09-12T16:08:53.525Z,1.38
2022-09-12T16:11:23.538Z,1.33
2022-09-12T16:13:53.752Z,1.70
2022-09-12T16:16:22.027Z,1.48
2022-09-12T16:18:50.225Z,1.63
2022-09-12T16:21:18.462Z,1.77
2022-09-12T16:23:47.440Z,1.48
2022-09-12T16:26:17.708Z,1.60
2022-09-12T16:28:46.240Z,1.70
2022-09-12T16:31:15.252Z,1.77
2022-09-12T16:33:43.433Z,1.23
2022-09-12T16:36:14.308Z,1.60
2022-09-12T16:38:43.332Z,1.52
2022-09-12T16:41:12.701Z,1.52
2022-09-12T16:43:42.965Z,1.63
2022-09-12T16:46:12.631Z,1.65
2022-09-12T16:48:49.383Z,1.77
2022-09-12T16:51:21.757Z,1.50
2022-09-12T16:53:50.225Z,1.98
2022-09-12T16:56:18.633Z,1.55
2022-09-12T16:58:48.833Z,1.85
2022-09-12T17:01:19.305Z,2.00
2022-09-12T17:03:47.436Z,1.77
2022-09-12T17:06:16.970Z,1.52
2022-09-12T17:08:47.421Z,1.90
2022-09-12T17:11:17.398Z,1.60
2022-09-12T17:14:06.400Z,1.98
2022-09-12T17:16:36.388Z,1.90
2022-09-12T17:19:05.754Z,1.92
2022-09-12T17:21:34.264Z,1.60
2022-09-12T17:24:03.419Z,1.80
2022-09-12T17:26:31.578Z,1.75
2022-09-12T17:29:01.600Z,2.05
2022-09-12T17:31:29.818Z,1.90
2022-09-12T17:33:59.503Z,1.98
2022-09-12T17:36:29.135Z,1.80
2022-09-12T17:38:57.167Z,2.08
2022-09-12T17:41:27.855Z,2.58
2022-09-12T17:43:57.226Z,2.22
2022-09-12T17:46:32.887Z,2.30
2022-09-12T17:49:01.451Z,2.00
2022-09-12T17:51:31.580Z,2.38
2022-09-12T17:54:01.365Z,1.70
2022-09-12T17:56:31.477Z,2.38
2022-09-12T17:59:00.516Z,2.10
2022-09-12T18:01:48.438Z,2.08
2022-09-12T18:04:17.447Z,2.10
2022-09-12T18:06:48.141Z,1.80
2022-09-12T18:09:18.602Z,1.98
2022-09-12T18:11:48.155Z,2.20
2022-09-12T18:14:17.241Z,2.22
2022-09-12T18:16:47.413Z,2.20
2022-09-12T18:19:16.394Z,1.92
2022-09-12T18:21:44.714Z,2.28
2022-09-12T18:24:12.904Z,2.33
2022-09-12T18:26:42.759Z,2.20
2022-09-12T18:29:10.931Z,2.67
2022-09-12T18:31:39.248Z,2.38
2022-09-12T18:34:12.669Z,2.33
2022-09-12T18:36:41.476Z,2.30
2022-09-12T18:39:09.737Z,2.15
2022-09-12T18:41:37.987Z,1.95
2022-09-12T18:44:06.371Z,2.45
2022-09-12T18:46:35.814Z,2.40
2022-09-12T18:49:04.719Z,3.20
2022-09-12T18:51:36.328Z,2.47
2022-09-12T18:54:07.283Z,2.50
2022-09-12T18:56:38.424Z,2.63
2022-09-12T18:59:08.442Z,2.33
2022-09-12T19:01:38.372Z,2.40
2022-09-12T19:04:07.695Z,1.98
2022-09-12T19:06:38.867Z,2.65
2022-09-12T19:09:09.020Z,2.10
2022-09-12T19:11:39.255Z,2.88
2022-09-12T19:14:08.502Z,2.13
2022-09-12T19:16:37.054Z,2.40
2022-09-12T19:19:06.134Z,2.40
2022-09-12T19:21:37.528Z,2.58
2022-09-12T19:24:07.366Z,2.33
2022-09-12T19:26:35.813Z,2.30
2022-09-12T19:29:04.392Z,2.97
2022-09-12T19:31:33.648Z,2.58
2022-09-12T19:34:02.480Z,2.80
2022-09-12T19:36:44.958Z,2.40
2022-09-12T19:39:16.472Z,2.17
2022-09-12T19:41:44.797Z,2.47
2022-09-12T19:44:12.845Z,2.70
2022-09-12T19:46:41.584Z,2.78
2022-09-12T19:49:11.695Z,2.60
2022-09-12T19:51:40.087Z,2.50
2022-09-12T19:54:08.368Z,2.60
2022-09-12T19:56:38.391Z,2.28
2022-09-12T19:59:06.472Z,2.85
2022-09-12T20:01:36.939Z,2.60
2022-09-12T20:04:05.538Z,2.78
2022-09-12T20:06:33.741Z,2.65
2022-09-12T20:09:01.812Z,3.25
2022-09-12T20:11:30.035Z,2.72
2022-09-12T20:13:59.413Z,3.05
2022-09-12T20:16:30.076Z,2.60
2022-09-12T20:19:00.328Z,2.58
2022-09-12T20:21:32.930Z,3.10
2022-09-12T20:24:02.341Z,2.47
2022-09-12T20:26:30.709Z,2.95
2022-09-12T20:29:00.784Z,2.58
2022-09-12T20:31:30.319Z,2.63
2022-09-12T20:33:59.054Z,2.92
2022-09-12T20:36:27.776Z,2.80
2022-09-12T20:38:57.975Z,2.53
2022-09-12T20:41:27.680Z,2.50
2022-09-12T20:43:57.261Z,2.53
2022-09-12T20:46:28.453Z,2.60
2022-09-12T20:48:56.600Z,2.92
2022-09-12T20:51:26.572Z,2.83
2022-09-12T20:53:55.517Z,2.78
2022-09-12T20:56:24.676Z,2.70
2022-09-12T20:58:52.762Z,2.58
2022-09-12T21:01:21.522Z,2.67
2022-09-12T21:03:51.191Z,2.80
2022-09-12T21:06:20.140Z,2.53
2022-09-12T21:08:49.060Z,2.90
2022-09-12T21:11:18.848Z,2.65
2022-09-12T21:13:47.045Z,2.80
2022-09-12T21:16:16.844Z,2.78
2022-09-12T21:18:45.642Z,2.60
2022-09-12T21:21:16.788Z,2.80
2022-09-12T21:23:45.048Z,2.70
2022-09-12T21:26:13.205Z,2.80
2022-09-12T21:28:41.355Z,2.45
2022-09-12T21:31:09.690Z,2.60
2022-09-12T21:33:37.825Z,2.80
2022-09-12T21:36:06.799Z,2.35
2022-09-12T21:38:36.344Z,2.50
2022-09-12T21:41:09.360Z,2.50
2022-09-12T21:43:37.839Z,2.30
2022-09-12T21:46:07.260Z,2.33
2022-09-12T21:48:36.147Z,2.35
2022-09-12T21:51:05.003Z,2.22
2022-09-12T21:53:33.162Z,2.30
2022-09-12T21:56:08.043Z,2.60
2022-09-12T21:58:36.995Z,2.40
2022-09-12T22:01:06.138Z,2.30
2022-09-12T22:03:34.343Z,2.78
2022-09-12T22:06:04.220Z,2.70
2022-09-12T22:08:34.031Z,2.90
2022-09-12T22:11:05.051Z,2.65
2022-09-12T22:13:34.476Z,2.58
2022-09-12T22:16:03.470Z,2.45
2022-09-12T22:18:34.177Z,2.22
2022-09-12T22:21:04.355Z,2.20
2022-09-12T22:23:49.833Z,2.70
2022-09-12T22:26:18.411Z,2.70
2022-09-12T22:28:48.193Z,2.70
2022-09-12T22:31:16.834Z,2.50
2022-09-12T22:33:45.710Z,2.60
2022-09-12T22:36:13.869Z,2.33
2022-09-12T22:38:42.027Z,2.35
2022-09-12T22:41:12.102Z,2.42
2022-09-12T22:43:40.080Z,2.33
2022-09-12T22:46:12.467Z,2.60
2022-09-12T22:48:41.185Z,2.53
2022-09-12T22:51:09.848Z,2.38
2022-09-12T22:53:38.047Z,2.50
2022-09-12T22:56:07.351Z,2.58
2022-09-12T22:58:37.265Z,2.45
2022-09-12T23:01:06.089Z,2.38
2022-09-12T23:03:36.546Z,2.70
2022-09-12T23:06:04.901Z,2.33
2022-09-12T23:08:34.526Z,2.30
2022-09-12T23:11:03.495Z,2.15
2022-09-12T23:13:32.162Z,2.30
2022-09-12T23:16:00.954Z,2.17
2022-09-12T23:18:29.558Z,2.42
2022-09-12T23:21:00.484Z,2.30
2022-09-12T23:23:28.744Z,2.30
2022-09-12T23:26:04.596Z,2.30
2022-09-12T23:28:32.790Z,2.00
2022-09-12T23:31:01.023Z,2.10
2022-09-12T23:33:29.451Z,2.38
2022-09-12T23:36:03.125Z,2.25
2022-09-12T23:38:33.306Z,2.15
2022-09-12T23:41:01.838Z,2.72
2022-09-12T23:43:30.859Z,2.40
2022-09-12T23:45:59.280Z,2.58
2022-09-12T23:48:27.929Z,2.58
2022-09-12T23:50:56.196Z,2.00
2022-09-12T23:53:26.225Z,2.47
2022-09-12T23:55:54.723Z,2.13
2022-09-12T23:58:23.261Z,2.55
